createdAt,value
2023-04-07T00:01:19.840Z,0.20
2023-04-07T00:03:47.609Z,0.50
2023-04-07T00:06:15.027Z,0.60
2023-04-07T00:08:42.225Z,0.70
2023-04-07T00:11:09.521Z,0.70
2023-04-07T00:13:36.740Z,0.80
2023-04-07T00:16:04.053Z,0.80
2023-04-07T00:18:31.582Z,0.70
2023-04-07T00:20:58.768Z,0.60
2023-04-07T00:23:25.973Z,0.80
2023-04-07T00:25:53.315Z,0.90
2023-04-07T00:28:20.548Z,0.90
2023-04-07T00:30:47.774Z,0.90
2023-04-07T00:33:15.111Z,0.80
2023-04-07T00:35:42.372Z,1.00
2023-04-07T00:38:09.651Z,1.20
2023-04-07T00:40:36.923Z,1.20
2023-04-07T00:43:04.279Z,1.00
2023-04-07T00:45:31.749Z,0.90
2023-04-07T00:47:59.194Z,1.00
2023-04-07T00:50:26.761Z,1.10
2023-04-07T00:52:55.195Z,1.00
2023-04-07T00:55:22.690Z,1.20
2023-04-07T00:57:50.686Z,1.20
2023-04-07T01:00:18.118Z,1.10
2023-04-07T01:03:00.264Z,1.30
2023-04-07T01:05:30.557Z,1.20
2023-04-07T01:08:24.286Z,1.20
2023-04-07T01:11:00.480Z,1.20
2023-04-07T01:13:38.723Z,1.20
2023-04-07T01:16:13.549Z,1.30
2023-04-07T01:18:41.252Z,1.30
2023-04-07T01:21:14.238Z,1.20
2023-04-07T01:24:04.104Z,1.20
2023-04-07T01:26:36.086Z,1.20
2023-04-07T01:29:27.942Z,1.30
2023-04-07T01:31:56.781Z,1.40
2023-04-07T01:34:26.847Z,1.40
2023-04-07T01:36:56.312Z,1.40
2023-04-07T01:39:24.360Z,1.50
2023-04-07T01:41:53.190Z,1.50
2023-04-07T01:44:21.350Z,1.30
2023-04-07T01:46:51.200Z,1.20
2023-04-07T01:49:19.568Z,1.10
2023-04-07T01:51:50.495Z,1.30
2023-04-07T01:54:18.633Z,1.30
2023-04-07T01:56:46.089Z,1.40
2023-04-07T01:59:13.526Z,1.30
2023-04-07T02:01:41.054Z,1.50
2023-04-07T02:04:12.959Z,1.40
2023-04-07T02:06:49.269Z,1.30
2023-04-07T02:09:18.428Z,1.20
2023-04-07T02:11:46.491Z,1.30
2023-04-07T02:14:15.731Z,1.30
2023-04-07T02:16:43.549Z,1.50
2023-04-07T02:19:11.097Z,1.50
2023-04-07T02:21:40.813Z,1.50
2023-04-07T02:24:08.612Z,1.50
2023-04-07T02:26:36.596Z,1.50
2023-04-07T02:29:05.179Z,1.70
2023-04-07T02:31:32.701Z,1.80
2023-04-07T02:34:00.058Z,1.90
2023-04-07T02:36:27.341Z,2.00
2023-04-07T02:38:55.149Z,1.90
2023-04-07T02:41:22.497Z,1.80
2023-04-07T02:43:53.542Z,1.80
2023-04-07T02:46:21.002Z,1.80
2023-04-07T02:48:48.313Z,1.80
2023-04-07T02:51:15.541Z,1.70
2023-04-07T02:53:42.741Z,1.60
2023-04-07T02:56:09.959Z,1.50
2023-04-07T02:58:37.190Z,1.70
2023-04-07T03:01:05.500Z,1.70
2023-04-07T03:03:32.880Z,1.70
2023-04-07T03:06:00.249Z,1.60
2023-04-07T03:08:27.699Z,1.60
2023-04-07T03:10:54.889Z,1.70
2023-04-07T03:13:22.915Z,1.70
2023-04-07T03:15:50.176Z,1.80
2023-04-07T03:18:17.443Z,1.80
2023-04-07T03:20:45.914Z,1.70
2023-04-07T03:23:13.174Z,1.80
2023-04-07T03:25:40.973Z,1.60
2023-04-07T03:28:08.241Z,1.50
2023-04-07T03:30:35.676Z,1.50
2023-04-07T03:33:02.929Z,1.40
2023-04-07T03:35:30.162Z,1.50
2023-04-07T03:37:57.344Z,1.30
2023-04-07T03:40:24.637Z,1.30
2023-04-07T03:42:51.860Z,1.20
2023-04-07T03:45:19.165Z,1.20
2023-04-07T03:47:46.468Z,0.90
2023-04-07T03:50:13.723Z,0.80
2023-04-07T03:52:40.958Z,0.90
2023-04-07T03:55:08.714Z,0.90
2023-04-07T03:57:36.026Z,1.00
2023-04-07T04:00:04.066Z,0.90
2023-04-07T04:02:31.424Z,1.00
2023-04-07T04:04:58.667Z,1.20
2023-04-07T04:07:26.448Z,1.10
2023-04-07T04:09:53.726Z,1.10
2023-04-07T04:12:21.078Z,1.20
2023-04-07T04:14:48.269Z,1.20
2023-04-07T04:17:15.568Z,1.20
2023-04-07T04:19:42.760Z,1.20
2023-04-07T04:22:10.248Z,1.20
2023-04-07T04:24:37.466Z,1.10
2023-04-07T04:27:04.796Z,1.20
2023-04-07T04:29:33.017Z,1.20
2023-04-07T04:32:00.752Z,1.20
2023-04-07T04:34:27.976Z,1.10
2023-04-07T04:36:55.249Z,1.20
2023-04-07T04:39:22.466Z,1.10
2023-04-07T04:41:49.936Z,1.20
2023-04-07T04:44:17.187Z,1.20
2023-04-07T04:46:44.515Z,1.30
2023-04-07T04:49:11.931Z,1.30
2023-04-07T04:51:39.241Z,1.60
2023-04-07T04:54:06.934Z,1.60
2023-04-07T04:56:34.371Z,1.50
2023-04-07T04:59:02.564Z,1.60
2023-04-07T05:01:31.467Z,1.50
2023-04-07T05:04:00.669Z,1.70
2023-04-07T05:06:29.245Z,1.70
2023-04-07T05:08:56.575Z,1.70
2023-04-07T05:11:23.822Z,1.70
2023-04-07T05:13:51.284Z,1.60
2023-04-07T05:16:18.775Z,1.60
2023-04-07T05:18:46.133Z,1.60
2023-04-07T05:21:13.336Z,1.70
2023-04-07T05:23:41.412Z,1.80
2023-04-07T05:26:08.666Z,1.80
2023-04-07T05:28:35.855Z,1.90
2023-04-07T05:31:04.178Z,2.00
2023-04-07T05:33:32.409Z,2.20
2023-04-07T05:35:59.822Z,2.30
2023-04-07T05:38:27.066Z,2.40
2023-04-07T05:40:54.540Z,2.60
2023-04-07T05:43:21.805Z,2.80
2023-04-07T05:45:49.035Z,2.90
2023-04-07T05:48:16.449Z,2.90
2023-04-07T05:50:43.954Z,3.10
2023-04-07T05:53:11.159Z,3.00
2023-04-07T05:55:38.400Z,3.00
2023-04-07T05:58:05.753Z,2.90
2023-04-07T06:00:33.179Z,2.80
2023-04-07T06:03:02.029Z,2.70
2023-04-07T06:05:29.412Z,2.50
2023-04-07T06:07:56.711Z,2.50
2023-04-07T06:10:24.202Z,2.50
2023-04-07T06:12:51.433Z,2.50
2023-04-07T06:15:18.771Z,2.50
2023-04-07T06:17:46.180Z,2.60
2023-04-07T06:20:13.542Z,2.70
2023-04-07T06:22:40.958Z,2.80
2023-04-07T06:25:08.618Z,2.90
2023-04-07T06:27:36.354Z,3.00
2023-04-07T06:30:04.046Z,3.00
2023-04-07T06:32:31.788Z,3.20
2023-04-07T06:34:59.218Z,3.40
2023-04-07T06:37:26.518Z,3.40
2023-04-07T06:39:53.834Z,3.50
2023-04-07T06:42:21.160Z,3.50
2023-04-07T06:44:48.440Z,3.60
2023-04-07T06:47:15.863Z,3.60
2023-04-07T06:49:43.121Z,3.60
2023-04-07T06:52:10.323Z,3.50
2023-04-07T06:54:37.606Z,3.50
2023-04-07T06:57:05.236Z,3.50
2023-04-07T06:59:32.451Z,3.70
2023-04-07T07:01:59.758Z,3.70
2023-04-07T07:04:27.246Z,3.90
2023-04-07T07:06:56.094Z,4.00
2023-04-07T07:09:23.402Z,4.20
2023-04-07T07:11:50.741Z,4.40
2023-04-07T07:14:17.977Z,4.50
2023-04-07T07:16:46.397Z,4.60
2023-04-07T07:19:14.544Z,4.70
2023-04-07T07:21:41.886Z,4.70
2023-04-07T07:24:09.222Z,5.20
2023-04-07T07:26:36.510Z,5.30
2023-04-07T07:29:03.772Z,5.60
2023-04-07T07:31:31.621Z,5.70
2023-04-07T07:33:59.047Z,6.00
2023-04-07T07:36:26.863Z,6.20
2023-04-07T07:38:54.406Z,6.30
2023-04-07T07:41:21.682Z,6.00
2023-04-07T07:43:49.325Z,6.10
2023-04-07T07:46:16.753Z,6.10
2023-04-07T07:48:44.047Z,6.20
2023-04-07T07:51:11.543Z,6.30
2023-04-07T07:53:38.871Z,6.20
2023-04-07T07:56:06.114Z,6.20
2023-04-07T07:58:33.476Z,6.30
2023-04-07T08:01:00.712Z,6.40
2023-04-07T08:03:28.046Z,6.50
2023-04-07T08:05:55.563Z,6.50
2023-04-07T08:08:22.798Z,6.50
2023-04-07T08:10:50.109Z,6.70
2023-04-07T08:13:17.291Z,7.00
2023-04-07T08:15:44.706Z,7.30
2023-04-07T08:18:11.992Z,7.60
2023-04-07T08:20:39.389Z,7.90
2023-04-07T08:23:06.714Z,7.90
2023-04-07T08:25:34.000Z,7.90
2023-04-07T08:28:01.433Z,8.30
2023-04-07T08:30:28.659Z,8.30
2023-04-07T08:32:56.846Z,8.70
2023-04-07T08:35:24.227Z,8.90
2023-04-07T08:37:51.579Z,8.80
2023-04-07T08:40:19.104Z,9.00
2023-04-07T08:42:49.894Z,8.70
2023-04-07T08:45:19.184Z,8.70
2023-04-07T08:47:48.345Z,8.90
2023-04-07T08:50:18.283Z,9.10
2023-04-07T08:52:49.988Z,9.50
2023-04-07T08:55:17.411Z,9.50
2023-04-07T08:57:44.842Z,9.70
2023-04-07T09:00:13.196Z,9.70
2023-04-07T09:02:45.961Z,10.00
2023-04-07T09:05:14.754Z,10.40
2023-04-07T09:07:45.314Z,10.40
2023-04-07T09:10:12.760Z,10.70
2023-04-07T09:12:40.214Z,10.70
2023-04-07T09:15:08.790Z,10.80
2023-04-07T09:17:36.341Z,11.10
2023-04-07T09:20:04.915Z,11.20
2023-04-07T09:22:38.946Z,10.60
2023-04-07T09:25:23.891Z,10.70
2023-04-07T09:28:09.516Z,10.90
2023-04-07T09:30:36.732Z,11.10
2023-04-07T09:33:04.083Z,11.30
2023-04-07T09:35:31.589Z,11.50
2023-04-07T09:38:03.682Z,11.60
2023-04-07T09:40:31.203Z,11.50
2023-04-07T09:42:58.724Z,11.90
2023-04-07T09:45:34.594Z,11.90
2023-04-07T09:48:07.863Z,11.50
2023-04-07T09:50:41.452Z,11.60
2023-04-07T09:53:08.834Z,11.50
2023-04-07T09:55:36.983Z,12.20
2023-04-07T09:58:06.528Z,12.50
2023-04-07T10:00:35.402Z,12.80
2023-04-07T10:03:04.414Z,12.10
2023-04-07T10:05:32.946Z,12.10
2023-04-07T10:08:02.425Z,12.30
2023-04-07T10:10:31.870Z,12.50
2023-04-07T10:12:59.485Z,12.80
2023-04-07T10:15:26.800Z,13.20
2023-04-07T10:17:56.872Z,13.20
2023-04-07T10:20:24.627Z,13.30
2023-04-07T10:22:55.640Z,13.60
2023-04-07T10:25:25.683Z,13.70
2023-04-07T10:28:02.286Z,13.80
2023-04-07T10:30:32.474Z,13.50
2023-04-07T10:32:59.966Z,13.70
2023-04-07T10:35:28.518Z,14.10
2023-04-07T10:38:08.273Z,13.80
2023-04-07T10:40:37.038Z,13.40
2023-04-07T10:43:05.238Z,14.10
2023-04-07T10:45:48.557Z,13.90
2023-04-07T10:48:18.223Z,14.00
2023-04-07T10:50:47.111Z,13.60
2023-04-07T10:53:15.686Z,13.80
2023-04-07T10:55:44.894Z,13.90
2023-04-07T10:58:23.449Z,13.70
2023-04-07T11:01:14.860Z,13.60
2023-04-07T11:03:52.991Z,13.70
2023-04-07T11:06:20.604Z,13.60
2023-04-07T11:08:49.629Z,13.60
2023-04-07T11:11:38.857Z,13.50
2023-04-07T11:14:06.539Z,13.60
2023-04-07T11:16:42.375Z,13.20
2023-04-07T11:19:10.020Z,13.40
2023-04-07T11:21:37.440Z,13.70
2023-04-07T11:24:04.983Z,13.30
2023-04-07T11:26:39.126Z,13.70
2023-04-07T11:29:06.680Z,13.40
2023-04-07T11:31:34.360Z,13.90
2023-04-07T11:34:04.898Z,13.80
2023-04-07T11:36:39.993Z,13.80
2023-04-07T11:39:21.656Z,13.60
2023-04-07T11:41:50.929Z,13.90
2023-04-07T11:44:18.429Z,13.90
2023-04-07T11:47:00.867Z,13.90
2023-04-07T11:49:29.335Z,14.20
2023-04-07T11:52:06.422Z,14.20
2023-04-07T11:54:53.300Z,14.30
2023-04-07T11:57:28.665Z,14.40
2023-04-07T12:00:10.006Z,14.30
2023-04-07T12:02:37.979Z,15.00
2023-04-07T12:05:06.679Z,14.60
2023-04-07T12:07:34.195Z,14.70
2023-04-07T12:10:22.762Z,14.70
2023-04-07T12:12:50.217Z,14.70
2023-04-07T12:15:17.611Z,14.80
2023-04-07T12:17:47.718Z,14.80
2023-04-07T12:20:16.093Z,14.60
2023-04-07T12:22:43.375Z,14.90
2023-04-07T12:25:11.003Z,14.90
2023-04-07T12:27:43.231Z,14.90
2023-04-07T12:30:13.108Z,15.00
2023-04-07T12:32:41.276Z,14.80
2023-04-07T12:35:08.744Z,15.10
2023-04-07T12:37:36.081Z,14.50
2023-04-07T12:40:04.193Z,14.50
2023-04-07T12:42:31.516Z,14.70
2023-04-07T12:44:58.857Z,14.40
2023-04-07T12:47:26.197Z,14.80
2023-04-07T12:49:54.627Z,14.80
2023-04-07T12:52:22.681Z,14.90
2023-04-07T12:54:49.942Z,14.70
2023-04-07T12:57:17.175Z,14.70
2023-04-07T12:59:45.040Z,15.00
2023-04-07T13:02:13.862Z,15.10
2023-04-07T13:04:43.635Z,15.30
2023-04-07T13:07:10.902Z,15.00
2023-04-07T13:09:38.193Z,15.10
2023-04-07T13:12:05.569Z,15.40
2023-04-07T13:14:32.856Z,15.00
2023-04-07T13:17:00.145Z,14.90
2023-04-07T13:19:27.542Z,14.60
2023-04-07T13:21:54.920Z,15.00
2023-04-07T13:24:24.019Z,15.30
2023-04-07T13:26:52.355Z,15.30
2023-04-07T13:29:20.123Z,15.50
2023-04-07T13:31:48.754Z,15.80
2023-04-07T13:34:16.312Z,15.50
2023-04-07T13:36:43.539Z,15.70
2023-04-07T13:39:10.837Z,15.70
2023-04-07T13:41:38.111Z,15.80
2023-04-07T13:44:05.348Z,15.80
2023-04-07T13:46:32.622Z,15.70
2023-04-07T13:48:59.975Z,15.80
2023-04-07T13:51:28.239Z,15.90
2023-04-07T13:53:55.725Z,15.90
2023-04-07T13:56:23.645Z,15.60
2023-04-07T13:58:51.528Z,15.80
2023-04-07T14:01:18.844Z,15.80
2023-04-07T14:03:47.065Z,15.80
2023-04-07T14:06:14.817Z,15.60
2023-04-07T14:08:42.163Z,15.50
2023-04-07T14:11:09.392Z,15.80
2023-04-07T14:13:36.853Z,15.50
2023-04-07T14:16:04.487Z,15.40
2023-04-07T14:18:31.857Z,15.30
2023-04-07T14:21:00.615Z,15.40
2023-04-07T14:23:36.726Z,15.20
2023-04-07T14:26:04.890Z,15.20
2023-04-07T14:28:32.233Z,15.20
2023-04-07T14:30:59.479Z,15.00
2023-04-07T14:33:26.849Z,15.30
2023-04-07T14:35:54.221Z,15.00
2023-04-07T14:38:26.527Z,14.80
2023-04-07T14:40:55.829Z,14.70
2023-04-07T14:43:23.175Z,14.70
2023-04-07T14:45:51.038Z,14.50
2023-04-07T14:48:18.641Z,14.40
2023-04-07T14:50:47.675Z,14.60
2023-04-07T14:53:16.363Z,14.60
2023-04-07T14:55:43.957Z,14.50
2023-04-07T14:58:11.344Z,14.60
2023-04-07T15:00:38.791Z,14.60
2023-04-07T15:03:06.225Z,14.50
2023-04-07T15:05:33.707Z,14.30
2023-04-07T15:08:01.994Z,14.00
2023-04-07T15:10:30.159Z,14.40
2023-04-07T15:12:57.998Z,14.50
2023-04-07T15:15:25.807Z,14.40
2023-04-07T15:17:53.495Z,14.60
2023-04-07T15:20:21.038Z,14.70
2023-04-07T15:22:48.504Z,14.70
2023-04-07T15:25:16.676Z,14.80
2023-04-07T15:27:43.929Z,14.70
2023-04-07T15:30:11.724Z,14.50
2023-04-07T15:32:38.993Z,14.50
2023-04-07T15:35:07.148Z,14.70
2023-04-07T15:37:34.746Z,14.80
2023-04-07T15:40:02.046Z,14.80
2023-04-07T15:42:29.470Z,14.90
2023-04-07T15:44:56.838Z,14.90
2023-04-07T15:47:24.185Z,15.00
2023-04-07T15:49:51.368Z,14.80
2023-04-07T15:52:18.932Z,14.60
2023-04-07T15:54:46.242Z,14.80
2023-04-07T15:57:15.401Z,14.70
2023-04-07T15:59:42.912Z,14.40
2023-04-07T16:02:11.741Z,14.10
2023-04-07T16:04:40.995Z,13.70
2023-04-07T16:07:08.265Z,13.60
2023-04-07T16:09:35.680Z,13.50
2023-04-07T16:12:02.946Z,13.00
2023-04-07T16:14:31.315Z,12.70
2023-04-07T16:16:59.359Z,12.60
2023-04-07T16:19:26.802Z,12.40
2023-04-07T16:21:54.824Z,12.20
2023-04-07T16:24:22.573Z,12.10
2023-04-07T16:26:51.450Z,11.80
2023-04-07T16:29:19.711Z,11.60
2023-04-07T16:31:46.960Z,11.50
2023-04-07T16:34:14.606Z,11.70
2023-04-07T16:36:41.960Z,11.50
2023-04-07T16:39:09.328Z,11.40
2023-04-07T16:41:36.637Z,11.50
2023-04-07T16:44:03.838Z,11.20
2023-04-07T16:46:31.048Z,11.10
2023-04-07T16:48:58.411Z,11.10
2023-04-07T16:51:27.093Z,11.00
2023-04-07T16:53:54.330Z,11.00
2023-04-07T16:56:23.514Z,11.00
2023-04-07T16:58:51.771Z,10.80
2023-04-07T17:01:19.502Z,10.60
2023-04-07T17:03:49.122Z,10.70
2023-04-07T17:06:16.738Z,10.60
2023-04-07T17:08:44.117Z,10.30
2023-04-07T17:11:13.339Z,10.20
2023-04-07T17:13:40.925Z,10.10
2023-04-07T17:16:14.297Z,10.10
2023-04-07T17:18:41.733Z,10.00
2023-04-07T17:21:08.936Z,10.00
2023-04-07T17:23:36.165Z,9.90
2023-04-07T17:26:03.551Z,9.80
2023-04-07T17:28:31.098Z,9.70
2023-04-07T17:30:58.810Z,9.50
2023-04-07T17:33:26.461Z,9.50
2023-04-07T17:35:53.966Z,9.20
2023-04-07T17:38:21.257Z,9.20
2023-04-07T17:40:48.644Z,9.10
2023-04-07T17:43:16.286Z,9.00
2023-04-07T17:45:43.604Z,9.00
2023-04-07T17:48:12.186Z,8.90
2023-04-07T17:50:40.096Z,8.80
2023-04-07T17:53:07.851Z,8.70
2023-04-07T17:55:35.108Z,8.60
2023-04-07T17:58:02.397Z,8.60
2023-04-07T18:00:30.078Z,8.50
2023-04-07T18:02:57.783Z,8.40
2023-04-07T18:05:26.087Z,8.30
2023-04-07T18:07:55.006Z,8.20
2023-04-07T18:10:22.468Z,8.20
2023-04-07T18:12:59.617Z,8.20
2023-04-07T18:15:37.320Z,8.10
2023-04-07T18:18:10.177Z,8.00
2023-04-07T18:20:38.352Z,8.00
2023-04-07T18:23:05.889Z,7.90
2023-04-07T18:25:33.167Z,7.90
2023-04-07T18:28:02.037Z,7.80
2023-04-07T18:30:29.545Z,7.80
2023-04-07T18:32:57.161Z,7.70
2023-04-07T18:35:25.730Z,7.70
2023-04-07T18:37:53.717Z,7.80
2023-04-07T18:40:22.395Z,7.70
2023-04-07T18:42:49.712Z,7.60
2023-04-07T18:45:17.102Z,7.50
2023-04-07T18:47:44.392Z,7.60
2023-04-07T18:50:11.737Z,7.50
2023-04-07T18:52:39.013Z,7.50
2023-04-07T18:55:07.071Z,7.50
2023-04-07T18:57:34.404Z,7.50
2023-04-07T19:00:02.031Z,7.40
2023-04-07T19:02:29.643Z,7.40
2023-04-07T19:04:56.988Z,7.40
2023-04-07T19:07:24.329Z,7.30
2023-04-07T19:09:53.934Z,7.30
2023-04-07T19:12:21.308Z,7.30
2023-04-07T19:14:48.740Z,7.30
2023-04-07T19:17:16.551Z,7.30
2023-04-07T19:19:44.019Z,7.30
2023-04-07T19:22:11.236Z,7.30
2023-04-07T19:24:39.503Z,7.30
2023-04-07T19:27:07.369Z,7.30
2023-04-07T19:29:35.504Z,7.30
2023-04-07T19:32:03.408Z,7.30
2023-04-07T19:34:30.830Z,7.20
2023-04-07T19:36:58.644Z,7.20
2023-04-07T19:39:25.860Z,7.20
2023-04-07T19:41:53.157Z,7.20
2023-04-07T19:44:21.293Z,7.20
2023-04-07T19:46:48.935Z,7.00
2023-04-07T19:49:16.247Z,7.00
2023-04-07T19:51:43.702Z,7.00
2023-04-07T19:54:11.519Z,6.90
2023-04-07T19:56:38.841Z,7.00
2023-04-07T19:59:07.483Z,6.90
2023-04-07T20:01:34.777Z,6.80
2023-04-07T20:04:02.530Z,6.90
2023-04-07T20:06:31.118Z,6.80
2023-04-07T20:08:59.851Z,6.90
2023-04-07T20:11:27.111Z,6.80
2023-04-07T20:13:54.347Z,6.80
2023-04-07T20:16:21.883Z,6.80
2023-04-07T20:18:51.224Z,6.70
2023-04-07T20:21:18.575Z,6.70
2023-04-07T20:23:53.184Z,6.70
2023-04-07T20:26:22.401Z,6.70
2023-04-07T20:28:50.262Z,6.70
2023-04-07T20:31:19.462Z,6.70
2023-04-07T20:33:47.663Z,6.60
2023-04-07T20:36:15.053Z,6.60
2023-04-07T20:38:43.976Z,6.60
2023-04-07T20:41:16.744Z,6.60
2023-04-07T20:43:44.095Z,6.60
2023-04-07T20:46:11.620Z,6.60
2023-04-07T20:48:39.024Z,6.50
2023-04-07T20:51:06.719Z,6.60
2023-04-07T20:53:34.510Z,6.50
2023-04-07T20:56:03.065Z,6.50
2023-04-07T20:58:30.594Z,6.50
2023-04-07T21:00:59.349Z,6.40
2023-04-07T21:03:28.310Z,6.40
2023-04-07T21:05:56.801Z,6.30
2023-04-07T21:08:24.747Z,6.40
2023-04-07T21:10:53.363Z,6.30
2023-04-07T21:13:22.533Z,6.20
2023-04-07T21:15:49.926Z,6.30
2023-04-07T21:18:19.143Z,6.20
2023-04-07T21:20:47.384Z,6.20
2023-04-07T21:23:14.759Z,6.20
2023-04-07T21:25:42.110Z,6.10
2023-04-07T21:28:09.393Z,6.00
2023-04-07T21:30:41.519Z,6.00
2023-04-07T21:33:08.846Z,5.90
2023-04-07T21:35:37.047Z,5.90
2023-04-07T21:38:04.354Z,5.70
2023-04-07T21:40:31.713Z,5.70
2023-04-07T21:42:59.104Z,5.60
2023-04-07T21:45:26.419Z,5.60
2023-04-07T21:47:53.900Z,5.50
2023-04-07T21:50:21.235Z,5.60
2023-04-07T21:52:50.898Z,5.50
2023-04-07T21:55:21.590Z,5.20
2023-04-07T21:57:50.356Z,5.20
2023-04-07T22:00:17.825Z,5.00
2023-04-07T22:02:45.602Z,5.10
2023-04-07T22:05:13.239Z,5.00
2023-04-07T22:07:40.859Z,5.00
2023-04-07T22:10:08.748Z,4.90
2023-04-07T22:12:35.973Z,4.80
2023-04-07T22:15:03.592Z,4.80
2023-04-07T22:17:31.237Z,4.90
2023-04-07T22:19:58.478Z,4.80
2023-04-07T22:22:25.721Z,4.70
2023-04-07T22:24:53.059Z,4.70
2023-04-07T22:27:20.346Z,4.60
2023-04-07T22:29:47.671Z,4.50
2023-04-07T22:32:14.983Z,4.40
2023-04-07T22:34:42.286Z,4.40
2023-04-07T22:37:09.559Z,4.40
2023-04-07T22:39:36.826Z,4.40
2023-04-07T22:42:04.094Z,4.40
2023-04-07T22:44:31.334Z,4.40
2023-04-07T22:46:58.674Z,4.40
2023-04-07T22:49:26.435Z,4.50
2023-04-07T22:51:55.303Z,4.30
2023-04-07T22:54:22.883Z,4.40
2023-04-07T22:56:50.532Z,4.30
2023-04-07T22:59:17.919Z,4.40
2023-04-07T23:01:45.672Z,4.50
2023-04-07T23:04:13.094Z,4.50
2023-04-07T23:06:43.572Z,4.40
2023-04-07T23:09:11.625Z,4.40
2023-04-07T23:11:38.989Z,4.30
2023-04-07T23:14:07.001Z,4.20
2023-04-07T23:16:34.878Z,4.00
2023-04-07T23:19:02.305Z,4.10
2023-04-07T23:21:31.304Z,4.00
2023-04-07T23:23:59.903Z,4.00
2023-04-07T23:26:27.267Z,3.90
2023-04-07T23:28:54.550Z,3.70
2023-04-07T23:31:22.114Z,3.90
2023-04-07T23:33:49.422Z,3.80
2023-04-07T23:36:17.002Z,3.80
2023-04-07T23:38:44.313Z,3.90
2023-04-07T23:41:12.099Z,3.90
2023-04-07T23:43:39.565Z,4.00
2023-04-07T23:46:06.958Z,4.00
2023-04-07T23:48:34.308Z,4.10
2023-04-07T23:51:01.512Z,4.20
2023-04-07T23:53:28.791Z,4.10
2023-04-07T23:55:56.332Z,4.10
2023-04-07T23:58:23.788Z,4.10
